Time;durP1;ratioP1;P1;durP2;ratioP2;P2;SDS_P1;SDS_P2;PMS_P1;PMS_P2;Temp;Humidity;BMP_temperature;BMP_pressure;BME280_temperature;BME280_humidity;BME280_pressure;Samples;Min_cycle;Max_cycle;Signal;HPM_P1;HPM_P2
2022/04/01 00:00:57;;;;;;;13.35;6.85;;;;;;;-0.42;95.38;100210.03;4997407;28;20030;-89
2022/04/01 00:03:23;;;;;;;14.35;7.18;;;;;;;-0.52;95.48;100211.56;4997301;28;20068;-88
2022/04/01 00:05:48;;;;;;;12.68;6.60;;;;;;;-0.46;95.50;100214.22;4996866;28;20026;-88
2022/04/01 00:08:13;;;;;;;12.52;6.50;;;;;;;-0.45;95.52;100215.09;4997098;28;20023;-89
2022/04/01 00:10:39;;;;;;;11.40;6.03;;;;;;;-0.44;95.49;100212.56;4996078;28;20041;-87
2022/04/01 00:13:05;;;;;;;11.90;6.32;;;;;;;-0.43;95.54;100221.06;4996070;28;20386;-86
2022/04/01 00:15:31;;;;;;;11.95;6.53;;;;;;;-0.44;95.55;100222.75;4996053;28;20036;-87
2022/04/01 00:17:56;;;;;;;10.85;6.18;;;;;;;-0.55;95.32;100225.06;4995612;28;20101;-86
2022/04/01 00:20:22;;;;;;;11.18;5.90;;;;;;;-0.50;95.61;100225.16;4996413;28;20022;-87
2022/04/01 00:22:47;;;;;;;11.82;6.18;;;;;;;-0.58;95.57;100227.59;4996363;28;20073;-87
2022/04/01 00:25:14;;;;;;;10.98;5.90;;;;;;;-0.56;95.77;100232.69;4995528;28;20050;-86
2022/04/01 00:27:39;;;;;;;11.57;6.30;;;;;;;-0.63;95.52;100234.25;4995605;28;20034;-85
2022/04/01 00:30:05;;;;;;;11.30;6.30;;;;;;;-0.70;95.97;100224.78;4995513;28;20378;-85
2022/04/01 00:32:31;;;;;;;10.85;5.75;;;;;;;-0.66;95.98;100232.53;4995621;28;20049;-86
2022/04/01 00:34:56;;;;;;;12.27;6.22;;;;;;;-0.66;95.85;100232.53;4995625;28;20148;-87
2022/04/01 00:37:21;;;;;;;12.75;6.43;;;;;;;-0.65;96.10;100225.72;4994745;28;20041;-85
2022/04/01 00:39:47;;;;;;;11.50;6.15;;;;;;;-0.69;95.96;100224.81;4995522;28;20026;-86
2022/04/01 00:42:13;;;;;;;12.82;6.53;;;;;;;-0.66;96.28;100235.06;4995586;28;20041;-86
2022/04/01 00:44:39;;;;;;;10.63;5.53;;;;;;;-0.64;96.33;100238.50;4994680;28;20037;-85
2022/04/01 00:47:11;;;;;;;10.90;5.63;;;;;;;-0.63;95.88;100239.34;4995297;28;20387;-86
2022/04/01 00:49:37;;;;;;;12.50;6.18;;;;;;;-0.57;95.88;100236.06;4995205;28;20045;-85
2022/04/01 00:52:06;;;;;;;11.57;6.20;;;;;;;-0.64;95.86;100240.19;4994804;28;20034;-86
2022/04/01 00:54:31;;;;;;;12.18;6.38;;;;;;;-0.69;96.11;100247.75;4994764;28;20038;-85
2022/04/01 00:56:57;;;;;;;12.70;6.22;;;;;;;-0.64;95.91;100250.38;4995285;28;20101;-86
2022/04/01 00:59:24;;;;;;;11.48;5.85;;;;;;;-0.63;96.25;100247.00;4994349;28;20113;-85
2022/04/01 01:01:49;;;;;;;11.90;6.07;;;;;;;-0.62;96.31;100251.28;4995318;28;20026;-85
2022/04/01 01:04:16;;;;;;;14.65;6.20;;;;;;;-0.63;96.30;100250.44;4995201;28;20284;-85
2022/04/01 01:06:43;;;;;;;;;;;;;;;-0.59;96.25;100256.44;4994882;28;20462;-85
2022/04/01 01:09:10;;;;;;;7.85;4.78;;;;;;;-0.63;96.24;100245.34;4995051;28;20001;-85
2022/04/01 01:11:36;;;;;;;10.07;5.18;;;;;;;-0.51;95.87;100254.06;4994955;28;20031;-85
2022/04/01 01:14:03;;;;;;;10.60;5.40;;;;;;;-0.53;96.11;100250.63;4994407;28;20026;-85
2022/04/01 01:16:29;;;;;;;10.40;4.88;;;;;;;-0.52;95.69;100258.28;4994792;28;20023;-85
2022/04/01 01:19:03;;;;;;;9.18;4.88;;;;;;;-0.49;95.32;100247.28;4995358;28;20030;-84
2022/04/01 01:21:30;;;;;;;10.50;4.90;;;;;;;-0.53;95.63;100255.72;4994039;28;20080;-84
2022/04/01 01:24:04;;;;;;;10.50;4.88;;;;;;;-0.53;95.37;100246.38;4994183;28;20065;-84
2022/04/01 01:26:34;;;;;;;9.18;5.10;;;;;;;-0.59;95.55;100255.56;4993955;28;20038;-85
2022/04/01 01:28:59;;;;;;;9.45;5.25;;;;;;;-0.58;95.36;100263.28;4994750;28;20026;-84
2022/04/01 01:31:26;;;;;;;11.10;5.30;;;;;;;-0.64;95.24;100264.00;4994295;28;20026;-84
2022/04/01 01:33:54;;;;;;;10.65;5.38;;;;;;;-0.65;95.17;100261.41;4998344;28;20046;-84
2022/04/01 01:36:19;;;;;;;9.88;5.32;;;;;;;-0.65;95.45;100262.28;5006423;28;20022;-83
2022/04/01 01:38:45;;;;;;;8.70;5.10;;;;;;;-0.62;95.36;100262.31;4995606;28;20032;-84
2022/04/01 01:41:11;;;;;;;12.57;5.95;;;;;;;-0.65;95.38;100262.28;4994291;28;20040;-84
2022/04/01 01:43:36;;;;;;;11.10;5.32;;;;;;;-0.58;95.18;100262.41;4994702;28;20117;-84
2022/04/01 01:46:02;;;;;;;10.63;5.45;;;;;;;-0.59;95.33;100258.13;4994484;28;20057;-84
2022/04/01 01:48:30;;;;;;;9.57;5.30;;;;;;;-0.60;95.35;100258.94;4993585;28;20097;-84
2022/04/01 01:56:23;;;;;;;10.07;5.50;;;;;;;-0.64;95.91;100264.00;4993504;28;20441;-83
2022/04/01 01:58:49;;;;;;;10.52;5.47;;;;;;;-0.57;95.57;100275.19;4994140;28;20022;-84
2022/04/01 02:01:15;;;;;;;9.48;5.28;;;;;;;-0.60;95.66;100270.03;4994307;28;20031;-84
2022/04/01 02:03:41;;;;;;;10.27;5.67;;;;;;;-0.63;94.94;100272.50;4993171;28;20049;-83
2022/04/01 02:06:06;;;;;;;12.80;5.97;;;;;;;-0.69;95.18;100277.47;4994073;28;20293;-84
2022/04/01 02:08:32;;;;;;;10.68;5.72;;;;;;;-0.68;95.25;100277.50;4993380;28;20057;-83
2022/04/01 02:10:57;;;;;;;10.60;5.80;;;;;;;-0.61;95.06;100278.50;4993696;28;20032;-84
2022/04/01 02:13:23;;;;;;;13.10;6.07;;;;;;;-0.67;95.26;100273.25;4993321;28;20058;-83
2022/04/01 02:15:49;;;;;;;9.88;5.45;;;;;;;-0.65;95.71;100272.47;4993083;28;20041;-83
2022/04/01 02:18:15;;;;;;;10.75;5.80;;;;;;;-0.63;95.49;100281.03;4993578;28;20022;-83
2022/04/01 02:20:41;;;;;;;12.30;5.40;;;;;;;-0.58;95.45;100282.78;4993669;28;20471;-83
2022/04/01 02:23:07;;;;;;;10.82;5.93;;;;;;;-0.68;95.39;100284.28;4993156;28;20068;-83
2022/04/01 02:25:32;;;;;;;11.48;6.10;;;;;;;-0.69;95.34;100288.50;4993540;28;20419;-84
2022/04/01 02:27:58;;;;;;;12.20;6.43;;;;;;;-0.73;95.44;100286.72;4993451;28;20081;-84
2022/04/01 02:30:23;;;;;;;10.70;5.75;;;;;;;-0.66;95.43;100291.13;4992696;28;20092;-84
2022/04/01 02:32:49;;;;;;;11.50;6.05;;;;;;;-0.66;95.03;100291.13;4993474;28;20352;-85
2022/04/01 02:35:14;;;;;;;9.60;5.60;;;;;;;-0.60;94.94;100292.97;4993647;28;20065;-84
2022/04/01 02:37:40;;;;;;;11.75;6.38;;;;;;;-0.59;95.03;100298.91;4992643;28;20068;-85
2022/04/01 02:40:06;;;;;;;9.88;5.50;;;;;;;-0.57;95.30;100304.91;4993671;28;20049;-85
2022/04/01 02:42:32;;;;;;;9.60;5.40;;;;;;;-0.57;95.11;100298.13;4993276;28;20038;-84
2022/04/01 02:44:57;;;;;;;10.77;5.85;;;;;;;-0.60;94.83;100303.16;4992816;28;20033;-84
2022/04/01 02:47:24;;;;;;;10.70;5.97;;;;;;;-0.58;94.68;100309.16;4992790;28;20434;-85
2022/04/01 02:49:50;;;;;;;10.98;5.97;;;;;;;-0.60;94.94;100309.91;4993627;28;20030;-84
2022/04/01 02:52:15;;;;;;;10.20;5.72;;;;;;;-0.54;94.76;100305.81;4992632;28;20489;-85
2022/04/01 02:54:41;;;;;;;11.23;6.45;;;;;;;-0.60;94.62;100315.91;4993511;28;20034;-85
2022/04/01 02:57:07;;;;;;;12.13;6.28;;;;;;;-0.61;94.61;100319.28;4993355;28;20499;-85
2022/04/01 02:59:32;;;;;;;11.25;5.97;;;;;;;-0.58;94.37;100327.00;4992219;28;20548;-85
2022/04/01 03:01:58;;;;;;;10.70;5.93;;;;;;;-0.56;94.13;100316.81;4993333;28;20053;-85
2022/04/01 03:04:23;;;;;;;9.95;5.55;;;;;;;-0.52;94.54;100329.66;4992857;28;20031;-86
2022/04/01 03:06:49;;;;;;;12.63;6.28;;;;;;;-0.51;93.90;100338.19;4992870;28;20050;-85
2022/04/01 03:09:14;;;;;;;11.98;6.07;;;;;;;-0.50;93.84;100334.78;4993644;28;20033;-85
2022/04/01 03:11:41;;;;;;;14.02;6.93;;;;;;;-0.53;93.85;100335.59;4992974;28;20030;-85
2022/04/01 03:14:08;;;;;;;14.57;7.45;;;;;;;-0.52;94.22;100344.13;4992551;28;20061;-86
2022/04/01 03:16:35;;;;;;;14.90;7.40;;;;;;;-0.53;93.75;100343.22;4992331;28;20097;-85
2022/04/01 03:19:00;;;;;;;14.35;7.10;;;;;;;-0.53;93.69;100342.38;4992462;28;20034;-85
2022/04/01 03:21:26;;;;;;;13.95;7.38;;;;;;;-0.54;93.63;100345.75;4993052;28;20169;-85
2022/04/01 03:23:52;;;;;;;14.85;7.55;;;;;;;-0.53;93.41;100348.34;4992886;28;20073;-85
2022/04/01 03:26:21;;;;;;;15.07;8.30;;;;;;;-0.58;93.24;100351.59;4992162;28;20022;-84
2022/04/01 03:28:47;;;;;;;14.85;7.68;;;;;;;-0.60;93.39;100343.94;4993498;28;20029;-85
2022/04/01 03:31:14;;;;;;;13.13;7.28;;;;;;;-0.55;94.00;100349.13;4992798;28;20023;-86
2022/04/01 03:33:42;;;;;;;14.77;7.93;;;;;;;-0.62;93.99;100361.72;4992169;28;20052;-85
2022/04/01 03:36:08;;;;;;;13.93;7.50;;;;;;;-0.64;93.85;100359.97;4993328;28;20033;-85
2022/04/01 03:38:34;;;;;;;14.48;7.65;;;;;;;-0.61;93.91;100370.25;4992902;28;20030;-86
2022/04/01 03:41:01;;;;;;;15.45;7.55;;;;;;;-0.67;93.80;100365.88;4991828;28;20053;-86
2022/04/01 03:43:28;;;;;;;15.52;7.68;;;;;;;-0.70;93.80;100364.94;4992982;28;20126;-86
2022/04/01 03:45:54;;;;;;;16.10;7.77;;;;;;;-0.75;93.98;100357.19;4993644;28;20502;-85
2022/04/01 03:48:35;;;;;;;13.00;7.05;;;;;;;-0.79;94.87;100368.13;4994872;28;20026;-86
2022/04/01 03:51:01;;;;;;;12.15;6.95;;;;;;;-0.75;95.26;100372.50;4996961;28;20026;-85
2022/04/01 03:53:29;;;;;;;14.50;7.07;;;;;;;-0.78;95.06;100370.72;4996454;28;20100;-85
2022/04/01 03:55:56;;;;;;;14.30;7.07;;;;;;;-0.77;95.11;100379.22;4996064;28;20022;-85
2022/04/01 03:58:27;;;;;;;14.77;7.03;;;;;;;-0.76;95.16;100374.97;4996657;28;20026;-85
2022/04/01 04:00:54;;;;;;;12.05;6.57;;;;;;;-0.80;95.15;100389.34;4996473;28;20056;-85
2022/04/01 04:03:20;;;;;;;13.10;6.90;;;;;;;-0.75;95.19;100387.78;4995286;28;20026;-86
2022/04/01 04:05:47;;;;;;;13.50;6.95;;;;;;;-0.76;95.04;100392.81;4996218;28;20034;-85
2022/04/01 04:08:17;;;;;;;14.10;7.35;;;;;;;-0.78;95.36;100401.28;4995562;28;20423;-85
2022/04/01 04:10:46;;;;;;;13.65;6.85;;;;;;;-0.78;95.44;100392.78;4996211;28;20061;-85
2022/04/01 04:13:12;;;;;;;12.63;6.57;;;;;;;-0.73;95.32;100405.63;4996232;28;20109;-85
2022/04/01 04:15:43;;;;;;;12.50;6.63;;;;;;;-0.75;95.34;100407.28;4995266;28;20030;-85
2022/04/01 04:18:12;;;;;;;13.80;6.90;;;;;;;-0.75;95.52;100409.84;4996164;28;20030;-85
2022/04/01 04:20:50;;;;;;;12.88;6.53;;;;;;;-0.73;95.65;100421.78;4995671;28;20026;-85
2022/04/01 04:23:37;;;;;;;13.48;7.03;;;;;;;-0.69;95.14;100415.94;4995060;28;20023;-85
2022/04/01 04:26:13;;;;;;;12.73;6.95;;;;;;;-0.73;95.33;100418.38;4995878;28;20022;-85
2022/04/01 04:28:40;;;;;;;13.32;6.97;;;;;;;-0.71;95.17;100434.56;4995797;28;20036;-85
2022/04/01 04:31:08;;;;;;;14.02;6.80;;;;;;;-0.68;95.04;100421.91;4995186;28;20061;-85
2022/04/01 04:33:41;;;;;;;12.93;6.90;;;;;;;-0.70;94.72;100431.22;4995293;28;20019;-85
2022/04/01 04:36:11;;;;;;;13.27;6.90;;;;;;;-0.76;94.77;100431.03;4995750;28;20031;-84
2022/04/01 04:38:38;;;;;;;14.35;7.10;;;;;;;-0.77;94.80;100432.75;4994400;28;20153;-85
2022/04/01 04:41:08;;;;;;;13.30;7.00;;;;;;;-0.79;94.79;100436.94;4995580;28;20036;-85
2022/04/01 04:43:38;;;;;;;13.98;6.82;;;;;;;-0.79;94.76;100437.78;4994668;28;20030;-85
2022/04/01 04:46:04;;;;;;;13.32;6.82;;;;;;;-0.77;95.22;100442.94;4995057;28;20490;-85
2022/04/01 04:48:32;;;;;;;16.03;7.83;;;;;;;-0.82;94.32;100452.13;4994928;28;20105;-85
2022/04/01 04:51:02;;;;;;;13.82;7.35;;;;;;;-0.83;94.67;100447.88;4995220;28;20026;-85
2022/04/01 04:53:30;;;;;;;14.00;6.95;;;;;;;-0.81;94.19;100448.78;4977624;28;20027;-85
2022/04/01 04:55:58;;;;;;;14.73;7.10;;;;;;;-0.84;94.48;100457.22;4995391;28;20026;-84
2022/04/01 04:58:29;;;;;;;14.77;7.13;;;;;;;-0.81;94.02;100454.75;4994278;28;20034;-86
2022/04/01 05:01:01;;;;;;;14.30;7.30;;;;;;;-0.84;93.50;100479.25;4994365;28;20058;-86
2022/04/01 05:03:44;;;;;;;14.18;6.95;;;;;;;-0.79;92.97;100480.25;4995189;28;20037;-85
2022/04/01 05:06:16;;;;;;;13.70;7.10;;;;;;;-0.77;92.45;100481.16;4994562;28;20065;-85
2022/04/01 05:08:56;;;;;;;12.35;6.53;;;;;;;-0.76;92.91;100490.53;4995112;28;20037;-87
2022/04/01 05:11:41;;;;;;;13.10;7.07;;;;;;;-0.72;92.92;100504.22;4994698;28;20109;-86
2022/04/01 05:14:30;;;;;;;13.32;6.90;;;;;;;-0.72;92.57;100502.50;4995160;28;20038;-86
2022/04/01 05:17:02;;;;;;;13.90;6.80;;;;;;;-0.75;91.98;100509.22;4995126;28;20077;-86
2022/04/01 05:19:31;;;;;;;14.43;7.03;;;;;;;-0.66;91.75;100517.09;4993921;28;20105;-85
2022/04/01 05:22:04;;;;;;;13.63;6.90;;;;;;;-0.71;91.91;100518.69;4994963;28;20028;-86
2022/04/01 05:24:49;;;;;;;14.80;7.10;;;;;;;-0.72;91.50;100514.41;4994749;28;20041;-86
2022/04/01 05:27:17;;;;;;;14.35;7.38;;;;;;;-0.77;91.16;100524.47;4994891;28;20037;-86
2022/04/01 05:29:43;;;;;;;13.07;6.85;;;;;;;-0.75;91.47;100519.41;4994785;28;20449;-85
2022/04/01 05:32:13;;;;;;;12.85;6.90;;;;;;;-0.71;91.63;100522.06;4994763;28;20040;-86
2022/04/01 05:34:49;;;;;;;13.43;6.70;;;;;;;-0.72;91.73;100527.16;4992998;28;20036;-85
2022/04/01 05:37:16;;;;;;;13.95;7.15;;;;;;;-0.74;90.96;100526.25;4994676;28;20513;-86
2022/04/01 05:39:47;;;;;;;13.02;6.97;;;;;;;-0.71;91.11;100528.88;4993962;28;20030;-89
2022/04/01 05:42:13;;;;;;;13.75;7.20;;;;;;;-0.72;91.42;100529.69;4995518;28;20081;-89
2022/04/01 05:44:42;;;;;;;13.32;6.80;;;;;;;-0.66;91.27;100547.69;4995704;28;20493;-89
2022/04/01 05:47:07;;;;;;;14.85;7.30;;;;;;;-0.69;90.56;100542.53;4995507;28;20097;-86
2022/04/01 05:49:36;;;;;;;14.18;6.97;;;;;;;-0.73;89.85;100553.44;4995244;28;20034;-87
2022/04/01 05:52:02;;;;;;;12.88;6.63;;;;;;;-0.73;91.20;100564.50;4994940;28;20057;-87
2022/04/01 05:54:29;;;;;;;12.88;6.57;;;;;;;-0.72;90.86;100570.47;4994068;28;20120;-86
2022/04/01 05:56:56;;;;;;;16.58;7.47;;;;;;;-0.79;89.89;100561.81;4994452;28;20030;-86
2022/04/01 05:59:23;;;;;;;15.05;7.20;;;;;;;-0.72;90.62;100563.69;4993802;28;20490;-85
2022/04/01 06:02:07;;;;;;;12.82;7.20;;;;;;;-0.70;90.00;100563.72;4993424;28;20022;-85
2022/04/01 06:04:52;;;;;;;13.85;6.80;;;;;;;-0.73;90.22;100582.34;4993733;28;20041;-85
2022/04/01 06:07:36;;;;;;;12.83;6.63;;;;;;;-0.79;89.76;100593.22;4993770;28;20034;-85
2022/04/01 06:10:16;;;;;;;13.60;6.60;;;;;;;-0.76;89.96;100582.28;4992527;28;20033;-86
2022/04/01 06:13:00;;;;;;;13.63;6.80;;;;;;;-0.77;89.54;100593.28;4994006;28;20041;-85
2022/04/01 06:15:37;;;;;;;13.30;6.72;;;;;;;-0.73;89.96;100602.72;4992902;28;20096;-86
2022/04/01 06:18:24;;;;;;;11.05;6.00;;;;;;;-0.74;89.88;100608.66;4993907;28;20029;-87
2022/04/01 06:20:53;;;;;;;13.35;6.60;;;;;;;-0.84;88.93;100612.63;4994160;28;20030;-86
2022/04/01 06:23:33;;;;;;;13.07;6.40;;;;;;;-0.80;89.32;100611.03;4992475;28;20026;-84
2022/04/01 06:26:03;;;;;;;13.55;6.30;;;;;;;-0.82;89.62;100615.22;4993860;28;20129;-85
2022/04/01 06:28:32;;;;;;;12.13;5.80;;;;;;;-0.78;90.21;100624.69;4993313;28;20120;-84
2022/04/01 06:31:05;;;;;;;12.88;6.50;;;;;;;-0.78;90.06;100617.88;4992924;28;20046;-84
2022/04/01 06:34:01;;;;;;;12.85;6.55;;;;;;;-0.71;89.82;100630.81;4994627;28;20169;-77
2022/04/01 06:36:34;;;;;;;12.55;6.28;;;;;;;-0.72;88.47;100635.03;4993218;28;20038;-85
2022/04/01 06:39:05;;;;;;;11.82;5.75;;;;;;;-0.71;88.80;100639.31;4993965;28;20028;-83
2022/04/01 06:41:45;;;;;;;12.07;5.88;;;;;;;-0.70;89.78;100645.28;4993576;28;20045;-87
2022/04/01 06:44:11;;;;;;;11.00;5.55;;;;;;;-0.68;89.11;100653.84;4993847;28;20026;-92
2022/04/01 06:46:37;;;;;;;11.45;5.97;;;;;;;-0.70;89.29;100660.59;4994465;28;20066;-91
2022/04/01 06:49:08;;;;;;;11.57;5.72;;;;;;;-0.73;88.99;100661.34;4993947;28;20541;-88
2022/04/01 06:51:35;;;;;;;11.95;5.47;;;;;;;-0.75;88.19;100674.88;4992837;28;20046;-86
2022/04/01 06:54:00;;;;;;;10.55;5.45;;;;;;;-0.76;88.08;100668.03;4993424;28;20041;-86
2022/04/01 06:56:26;;;;;;;12.18;5.90;;;;;;;-0.81;87.30;100666.25;4993520;28;20030;-86
2022/04/01 06:58:51;;;;;;;8.73;5.20;;;;;;;-0.77;88.15;100677.38;4993701;28;20042;-87
2022/04/01 07:01:17;;;;;;;9.68;4.90;;;;;;;-0.69;88.81;100680.16;5263033;22;20158;-87
2022/04/01 07:03:42;;;;;;;11.60;5.20;;;;;;;-0.72;88.08;100677.50;5027037;28;20033;-87
2022/04/01 07:06:08;;;;;;;10.90;5.07;;;;;;;-0.74;87.63;100679.16;5022577;28;20026;-87
2022/04/01 07:08:34;;;;;;;9.98;5.22;;;;;;;-0.69;88.75;100686.09;5033167;28;20021;-88
2022/04/01 07:13:27;;;;;;;10.60;5.28;;;;;;;-0.68;87.63;100685.28;4991097;28;20065;-89
2022/04/01 07:15:56;;;;;;;11.27;5.60;;;;;;;-0.68;87.79;100687.84;4993813;28;20034;-88
2022/04/01 07:18:22;;;;;;;9.93;5.45;;;;;;;-0.63;87.74;100696.50;4992273;28;20046;-89
2022/04/01 07:20:47;;;;;;;9.73;5.20;;;;;;;-0.56;88.09;100689.84;4993937;28;20033;-88
2022/04/01 07:23:13;;;;;;;12.75;5.78;;;;;;;-0.62;87.34;100692.25;4995344;28;20030;-88
2022/04/01 07:25:38;;;;;;;11.00;4.97;;;;;;;-0.58;86.78;100686.41;4996032;28;20053;-88
2022/04/01 07:28:09;;;;;;;10.15;5.00;;;;;;;-0.60;87.70;100702.47;5100913;22;20072;-89
2022/04/01 07:30:35;;;;;;;10.00;5.18;;;;;;;-0.63;86.45;100706.69;5015438;28;20038;-84
2022/04/01 07:33:00;;;;;;;10.45;5.03;;;;;;;-0.57;87.08;100718.75;5015183;28;20032;-85
2022/04/01 07:35:26;;;;;;;10.80;5.07;;;;;;;-0.59;86.63;100719.50;5016038;28;20057;-86
2022/04/01 07:37:52;;;;;;;12.47;5.50;;;;;;;-0.62;86.19;100725.38;5016539;28;20053;-85
2022/04/01 07:40:18;;;;;;;10.50;5.25;;;;;;;-0.55;87.82;100723.88;5015365;28;20769;-86
2022/04/01 07:42:50;;;;;;;8.93;4.53;;;;;;;-0.57;86.94;100723.84;5016486;28;20026;-85
2022/04/01 07:45:17;;;;;;;10.88;4.70;;;;;;;-0.51;86.95;100720.59;5009979;28;20036;-84
2022/04/01 07:47:44;;;;;;;10.02;4.80;;;;;;;-0.51;86.95;100731.66;5008485;28;20555;-84
2022/04/01 07:50:09;;;;;;;;;;;;;;;-0.49;86.57;100740.22;5017058;28;20025;-84
2022/04/01 07:52:40;;;;;;;9.80;4.70;;;;;;;-0.47;86.67;100741.13;5015867;28;19917;-85
2022/04/01 07:55:07;;;;;;;8.15;4.40;;;;;;;-0.46;86.57;100744.53;4995708;28;20034;-86
2022/04/01 07:57:32;;;;;;;10.35;4.70;;;;;;;-0.48;86.66;100738.50;4996208;28;20093;-84
2022/04/01 07:59:57;;;;;;;9.57;4.68;;;;;;;-0.44;87.08;100747.97;4996121;28;20026;-86
2022/04/01 08:02:23;;;;;;;8.80;4.75;;;;;;;-0.44;86.69;100745.44;4995250;28;20033;-85
2022/04/01 08:04:51;;;;;;;10.23;4.88;;;;;;;-0.45;87.29;100747.94;4996502;28;20030;-84
2022/04/01 08:07:16;;;;;;;12.23;5.00;;;;;;;-0.41;87.00;100754.84;5015015;28;20050;-83
2022/04/01 08:09:42;;;;;;;8.18;4.65;;;;;;;-0.47;86.65;100753.88;5015562;28;20120;-84
2022/04/01 08:12:11;;;;;;;9.93;4.60;;;;;;;-0.45;87.23;100755.59;5015627;28;20022;-84
2022/04/01 08:14:37;;;;;;;8.38;4.57;;;;;;;-0.37;87.21;100752.41;5014462;28;20553;-83
2022/04/01 08:17:31;;;;;;;9.07;4.80;;;;;;;-0.40;86.90;100766.78;5004047;28;20398;-84
2022/04/01 08:19:57;;;;;;;10.02;4.88;;;;;;;-0.47;86.44;100769.16;5015564;28;20465;-84
2022/04/01 08:23:05;;;;;;;10.23;4.88;;;;;;;-0.47;85.97;100776.81;5013929;28;20045;-84
2022/04/01 08:25:30;;;;;;;11.45;5.10;;;;;;;-0.41;87.39;100780.34;5015938;28;20029;-83
2022/04/01 08:27:59;;;;;;;8.90;4.70;;;;;;;-0.44;86.92;100775.16;5009546;28;20115;-83
2022/04/01 08:31:17;;;;;;;10.88;4.60;;;;;;;-0.37;86.62;100788.13;5014292;28;20026;-83
2022/04/01 08:33:44;;;;;;;9.27;4.90;;;;;;;-0.44;86.21;100787.91;5015074;28;20034;-83
2022/04/01 08:36:09;;;;;;;12.93;4.90;;;;;;;-0.39;86.45;100799.09;5006798;28;20044;-87
2022/04/01 08:38:34;;;;;;;9.80;4.60;;;;;;;-0.29;86.18;100801.09;5017574;28;20030;-86
2022/04/01 08:41:05;;;;;;;9.48;4.10;;;;;;;-0.37;85.46;100797.47;5017113;28;20036;-85
2022/04/01 08:43:46;;;;;;;7.63;4.30;;;;;;;-0.39;83.54;100805.06;5013876;28;20053;-84
2022/04/01 08:46:12;;;;;;;7.60;4.05;;;;;;;-0.39;83.43;100816.97;5005261;28;20032;-85
2022/04/01 08:48:37;;;;;;;9.93;4.03;;;;;;;-0.41;83.39;100822.03;5014743;28;20022;-85
2022/04/01 08:51:22;;;;;;;7.45;4.10;;;;;;;-0.34;85.16;100829.03;5013493;28;20482;-85
2022/04/01 08:54:02;;;;;;;7.97;3.70;;;;;;;-0.34;84.83;100810.31;5012751;28;20032;-84
2022/04/01 08:56:27;;;;;;;6.10;3.65;;;;;;;-0.23;83.89;100831.91;5014220;28;20470;-86
2022/04/01 08:58:52;;;;;;;8.13;3.63;;;;;;;-0.17;84.78;100836.31;5013890;28;20025;-84
2022/04/01 09:01:18;;;;;;;7.25;3.83;;;;;;;-0.16;84.25;100841.44;5014403;28;20085;-86
2022/04/01 09:03:46;;;;;;;8.00;3.70;;;;;;;-0.09;84.10;100839.94;5007964;22;20053;-86
2022/04/01 09:06:11;;;;;;;7.85;3.90;;;;;;;-0.14;83.86;100840.63;5047714;28;20579;-86
2022/04/01 09:08:39;;;;;;;7.57;4.00;;;;;;;-0.07;84.35;100847.63;5034237;28;20033;-87
2022/04/01 09:11:28;;;;;;;6.00;3.80;;;;;;;-0.06;83.79;100844.25;5035182;28;20028;-85
2022/04/01 09:13:53;;;;;;;7.50;3.95;;;;;;;-0.01;84.02;100852.91;5034508;28;20081;-85
2022/04/01 09:16:22;;;;;;;6.90;3.60;;;;;;;-0.01;82.77;100860.56;5034199;28;20029;-86
2022/04/01 09:18:52;;;;;;;7.32;3.80;;;;;;;0.02;84.12;100858.09;5313726;22;20041;-85
2022/04/01 09:21:18;;;;;;;6.25;3.30;;;;;;;0.05;83.57;100857.31;5053134;28;20065;-82
2022/04/01 09:23:50;;;;;;;6.35;3.67;;;;;;;0.05;83.01;100855.63;5053938;28;20110;-82
2022/04/01 09:26:21;;;;;;;7.60;3.53;;;;;;;0.07;84.19;100864.19;5049223;28;20021;-82
2022/04/01 09:28:50;;;;;;;6.68;3.35;;;;;;;0.14;84.32;100868.63;5053860;28;20434;-82
2022/04/01 09:31:15;;;;;;;6.80;3.63;;;;;;;0.17;83.11;100875.50;5053224;28;20389;-82
2022/04/01 09:36:36;;;;;;;6.82;3.33;;;;;;;0.23;83.11;100872.25;5160914;22;20057;-82
2022/04/01 09:39:12;;;;;;;6.63;3.40;;;;;;;0.25;83.93;100870.63;5013162;28;20028;-86
2022/04/01 09:41:43;;;;;;;5.43;3.10;;;;;;;0.30;83.78;100876.72;5013523;28;20041;-85
2022/04/01 09:44:15;;;;;;;7.10;3.40;;;;;;;0.28;83.28;100876.66;5014108;28;20293;-85
2022/04/01 09:46:43;;;;;;;7.15;3.70;;;;;;;0.29;83.67;100882.66;5012561;28;20038;-86
2022/04/01 09:49:10;;;;;;;6.15;3.28;;;;;;;0.22;83.24;100881.63;5014132;28;20025;-83
2022/04/01 09:51:41;;;;;;;5.18;3.08;;;;;;;0.25;84.32;100879.16;5013657;28;21017;-82
2022/04/01 09:54:07;;;;;;;5.75;2.90;;;;;;;0.31;84.01;100886.13;5012674;28;20512;-83
2022/04/01 09:56:47;;;;;;;4.15;2.92;;;;;;;0.34;82.83;100883.63;5013066;28;20029;-82
2022/04/01 09:59:14;;;;;;;6.05;2.92;;;;;;;0.39;82.57;100881.22;5004797;28;20048;-84
2022/04/01 10:01:42;;;;;;;7.22;3.25;;;;;;;0.39;82.42;100883.78;5126640;22;20049;-81
2022/04/01 10:04:08;;;;;;;5.40;3.17;;;;;;;0.40;82.94;100888.91;5056093;22;20021;-81
2022/04/01 10:06:35;;;;;;;6.20;3.00;;;;;;;0.44;83.10;100892.41;5011139;28;20072;-82
2022/04/01 10:09:04;;;;;;;4.72;2.70;;;;;;;0.41;82.62;100887.22;5012605;28;20037;-81
2022/04/01 10:11:31;;;;;;;5.00;2.83;;;;;;;0.41;82.92;100888.09;5013127;28;20552;-82
2022/04/01 10:14:16;;;;;;;7.38;2.78;;;;;;;0.46;83.55;100883.97;5012722;28;20116;-81
2022/04/01 10:19:34;;;;;;;5.28;3.00;;;;;;;0.57;82.11;100888.50;5039563;28;20072;-81
2022/04/01 10:22:00;;;;;;;3.53;2.47;;;;;;;0.58;82.31;100895.31;5043576;28;20029;-81
2022/04/01 10:24:54;;;;;;;4.68;2.63;;;;;;;0.65;82.50;100892.13;5035596;22;20065;-82
2022/04/01 10:27:30;;;;;;;6.65;3.00;;;;;;;0.61;82.06;100886.09;5013146;28;20056;-82
2022/04/01 10:41:22;;;;;;;5.38;3.00;;;;;;;0.79;81.61;100899.28;5048981;22;20104;-83
2022/04/01 10:44:13;;;;;;;5.45;3.13;;;;;;;0.83;82.55;100890.84;5312259;22;20038;-83
2022/04/01 10:52:35;;;;;;;6.20;3.50;;;;;;;0.79;79.95;100905.25;5939530;22;20080;-83
2022/04/01 10:55:03;;;;;;;7.13;3.92;;;;;;;0.82;79.58;100904.47;5032923;28;20029;-83
2022/04/01 10:57:30;;;;;;;6.47;3.70;;;;;;;0.86;80.85;100901.16;5032482;28;20064;-83
2022/04/01 11:00:00;;;;;;;8.35;4.03;;;;;;;0.86;80.01;100906.28;5036844;28;20040;-83
2022/04/01 11:02:25;;;;;;;7.57;3.90;;;;;;;0.86;79.53;100908.84;5037599;28;20036;-83
2022/04/01 11:04:52;;;;;;;6.43;3.92;;;;;;;0.87;79.68;100905.47;5035674;28;20108;-83
2022/04/01 11:07:23;;;;;;;7.30;4.35;;;;;;;0.89;79.11;100921.69;5036238;28;20068;-82
2022/04/01 11:09:50;;;;;;;8.48;4.22;;;;;;;0.87;77.89;100913.13;5036731;28;20037;-83
2022/04/01 11:12:19;;;;;;;9.65;4.47;;;;;;;0.85;77.14;100925.00;5035860;28;20040;-83
2022/04/01 11:14:53;;;;;;;10.18;4.72;;;;;;;0.86;78.39;100926.72;5036658;28;20397;-82
2022/04/01 11:17:19;;;;;;;8.43;4.57;;;;;;;0.89;77.83;100924.25;5035115;28;20034;-82
2022/04/01 11:20:09;;;;;;;9.20;4.68;;;;;;;0.93;77.66;100918.38;5036206;28;20064;-83
2022/04/01 11:22:38;;;;;;;8.38;4.45;;;;;;;0.89;77.54;100932.78;5035228;28;20067;-84
2022/04/01 11:27:34;;;;;;;8.55;4.63;;;;;;;0.85;77.81;100918.19;5177122;22;20076;-82
2022/04/01 11:30:14;;;;;;;9.20;4.00;;;;;;;0.96;79.28;100927.84;5036269;28;20318;-83
2022/04/01 11:32:44;;;;;;;8.55;4.32;;;;;;;1.02;78.41;100936.50;5035317;28;20029;-84
2022/04/01 11:35:11;;;;;;;7.03;4.25;;;;;;;1.03;78.69;100938.22;5036257;28;20025;-82
2022/04/01 11:37:39;;;;;;;9.57;4.78;;;;;;;1.05;79.80;100933.19;5036602;28;20084;-83
2022/04/01 11:40:09;;;;;;;8.68;4.80;;;;;;;1.13;78.53;100939.34;5035723;28;20037;-80
2022/04/01 11:42:54;;;;;;;8.32;4.40;;;;;;;1.09;79.07;100940.06;5035734;28;20038;-83
2022/04/01 11:45:20;;;;;;;7.97;4.50;;;;;;;1.12;79.39;100937.59;5034845;28;20065;-80
2022/04/01 11:47:46;;;;;;;9.25;4.20;;;;;;;1.16;79.44;100934.31;5036258;28;20021;-82
2022/04/01 11:50:14;;;;;;;9.38;5.10;;;;;;;1.15;79.05;100940.25;5036522;28;20032;-83
2022/04/01 11:52:48;;;;;;;9.45;4.72;;;;;;;1.15;79.84;100937.69;5032872;28;20025;-82
2022/04/01 11:55:17;;;;;;;10.52;4.63;;;;;;;1.19;80.41;100942.03;5035384;28;20025;-80
2022/04/01 11:57:43;;;;;;;9.90;4.95;;;;;;;1.10;79.00;100943.50;5035674;28;20042;-81
2022/04/01 12:00:14;;;;;;;10.88;4.82;;;;;;;1.09;79.81;100940.06;5867540;22;20068;-82
2022/04/01 12:02:41;;;;;;;10.52;5.00;;;;;;;1.02;78.97;100935.66;5015263;28;20044;-82
2022/04/01 12:05:12;;;;;;;9.15;4.90;;;;;;;1.08;80.16;100944.34;5015775;28;20477;-81